KMLJ/MLJ METAR and TAF weather

Enter ICAO airport designator
Station Type Date Time Source
KMLJ METAR 2019/12/08 16:55 UTC NOAA

KMLJ 081655Z AUTO 09007KT 10SM CLR 12/02 A3034 RMK AO2


Station Type Date Time Source
KMLJ Decoded METAR 2019/12/08 16:55 UTC NOAA

Milledgeville, Baldwin County Airport, GA, United States (KMLJ) 33-09-15N 083-14-26W
Dec 08, 2019 - 11:55 AM EST / 2019.12.08 1655 UTC
Wind: from the E (090 degrees) at 8 MPH (7 KT):0
Visibility: 10 mile(s):0
Sky conditions: clear
Temperature: 53 F (12 C)
Dew Point: 35 F (2 C)
Relative Humidity: 50%
Pressure (altimeter): 30.34 in. Hg (1027 hPa)
ob: KMLJ 081655Z AUTO 09007KT 10SM CLR 12/02 A3034 RMK AO2
cycle: 17

Station Type Date Time Source
KMLJ TAF UTC NOAA

Error!

Example: see airport list